sensor_id;sensor_type;location;lat;lon;timestamp;temperature;humidity
23156;DHT22;11746;50.876;4.246;2024-02-23T00:01:06;5.80;99.90
23156;DHT22;11746;50.876;4.246;2024-02-23T00:03:36;5.80;99.90
23156;DHT22;11746;50.876;4.246;2024-02-23T00:06:04;5.80;99.90
23156;DHT22;11746;50.876;4.246;2024-02-23T00:08:32;5.80;99.90
23156;DHT22;11746;50.876;4.246;2024-02-23T00:10:58;5.80;99.90
23156;DHT22;11746;50.876;4.246;2024-02-23T00:13:23;5.70;99.90
23156;DHT22;11746;50.876;4.246;2024-02-23T00:15:52;5.70;99.90
23156;DHT22;11746;50.876;4.246;2024-02-23T00:18:19;5.70;99.90
23156;DHT22;11746;50.876;4.246;2024-02-23T00:20:46;5.70;99.90
23156;DHT22;11746;50.876;4.246;2024-02-23T00:23:15;5.60;99.90
23156;DHT22;11746;50.876;4.246;2024-02-23T00:25:40;5.60;99.90
23156;DHT22;11746;50.876;4.246;2024-02-23T00:28:08;5.70;99.90
23156;DHT22;11746;50.876;4.246;2024-02-23T00:30:37;5.60;99.90
23156;DHT22;11746;50.876;4.246;2024-02-23T00:33:03;5.60;99.90
23156;DHT22;11746;50.876;4.246;2024-02-23T00:35:31;5.60;99.90
23156;DHT22;11746;50.876;4.246;2024-02-23T00:37:56;5.50;99.90
23156;DHT22;11746;50.876;4.246;2024-02-23T00:40:24;5.50;99.90
23156;DHT22;11746;50.876;4.246;2024-02-23T00:42:50;5.40;99.90
23156;DHT22;11746;50.876;4.246;2024-02-23T00:45:18;5.30;99.90
23156;DHT22;11746;50.876;4.246;2024-02-23T00:47:44;5.20;99.90
23156;DHT22;11746;50.876;4.246;2024-02-23T00:50:11;5.20;99.90
23156;DHT22;11746;50.876;4.246;2024-02-23T00:52:37;5.20;99.90
23156;DHT22;11746;50.876;4.246;2024-02-23T00:55:05;5.20;99.90
23156;DHT22;11746;50.876;4.246;2024-02-23T00:57:30;5.20;99.90
23156;DHT22;11746;50.876;4.246;2024-02-23T00:59:57;5.20;99.90
23156;DHT22;11746;50.876;4.246;2024-02-23T01:02:22;5.20;99.90
23156;DHT22;11746;50.876;4.246;2024-02-23T01:04:52;5.30;99.90
23156;DHT22;11746;50.876;4.246;2024-02-23T01:07:22;5.20;99.90
23156;DHT22;11746;50.876;4.246;2024-02-23T01:09:48;5.10;99.90
23156;DHT22;11746;50.876;4.246;2024-02-23T01:12:14;5.10;99.90
23156;DHT22;11746;50.876;4.246;2024-02-23T01:14:42;5.20;99.90
23156;DHT22;11746;50.876;4.246;2024-02-23T01:17:07;5.20;99.90
23156;DHT22;11746;50.876;4.246;2024-02-23T01:19:36;5.30;99.90
23156;DHT22;11746;50.876;4.246;2024-02-23T01:22:01;5.20;99.90
23156;DHT22;11746;50.876;4.246;2024-02-23T01:24:30;5.20;99.90
23156;DHT22;11746;50.876;4.246;2024-02-23T01:27:00;5.20;99.90
23156;DHT22;11746;50.876;4.246;2024-02-23T01:29:28;5.20;99.90
23156;DHT22;11746;50.876;4.246;2024-02-23T01:31:54;5.20;99.90
23156;DHT22;11746;50.876;4.246;2024-02-23T01:34:23;5.20;99.90
23156;DHT22;11746;50.876;4.246;2024-02-23T01:36:48;5.10;99.90
23156;DHT22;11746;50.876;4.246;2024-02-23T01:39:16;5.20;99.90
23156;DHT22;11746;50.876;4.246;2024-02-23T01:41:44;5.20;99.90
23156;DHT22;11746;50.876;4.246;2024-02-23T01:44:12;5.20;99.90
23156;DHT22;11746;50.876;4.246;2024-02-23T01:46:39;5.20;99.90
23156;DHT22;11746;50.876;4.246;2024-02-23T01:49:08;5.20;99.90
23156;DHT22;11746;50.876;4.246;2024-02-23T01:51:37;5.20;99.90
23156;DHT22;11746;50.876;4.246;2024-02-23T01:54:05;5.20;99.90
23156;DHT22;11746;50.876;4.246;2024-02-23T01:56:37;5.10;99.90
23156;DHT22;11746;50.876;4.246;2024-02-23T01:59:06;5.10;99.90
23156;DHT22;11746;50.876;4.246;2024-02-23T02:01:32;5.10;99.90
23156;DHT22;11746;50.876;4.246;2024-02-23T02:03:58;5.10;99.90
23156;DHT22;11746;50.876;4.246;2024-02-23T02:06:24;5.20;99.90
23156;DHT22;11746;50.876;4.246;2024-02-23T02:08:50;5.10;99.90
23156;DHT22;11746;50.876;4.246;2024-02-23T02:11:16;5.10;99.90
23156;DHT22;11746;50.876;4.246;2024-02-23T02:13:41;5.10;99.90
23156;DHT22;11746;50.876;4.246;2024-02-23T02:16:07;5.10;99.90
23156;DHT22;11746;50.876;4.246;2024-02-23T02:18:33;5.10;99.90
23156;DHT22;11746;50.876;4.246;2024-02-23T02:20:58;5.10;99.90
23156;DHT22;11746;50.876;4.246;2024-02-23T02:23:25;5.20;99.90
23156;DHT22;11746;50.876;4.246;2024-02-23T02:25:55;5.20;99.90
23156;DHT22;11746;50.876;4.246;2024-02-23T02:28:24;5.10;99.90
23156;DHT22;11746;50.876;4.246;2024-02-23T02:30:51;5.10;99.90
23156;DHT22;11746;50.876;4.246;2024-02-23T02:33:21;5.30;99.90
23156;DHT22;11746;50.876;4.246;2024-02-23T02:35:49;5.30;99.90
23156;DHT22;11746;50.876;4.246;2024-02-23T02:38:19;5.30;99.90
23156;DHT22;11746;50.876;4.246;2024-02-23T02:40:48;5.30;99.90
23156;DHT22;11746;50.876;4.246;2024-02-23T02:43:13;5.30;99.90
23156;DHT22;11746;50.876;4.246;2024-02-23T02:45:39;5.30;99.90
23156;DHT22;11746;50.876;4.246;2024-02-23T02:48:07;5.30;99.90
23156;DHT22;11746;50.876;4.246;2024-02-23T02:50:32;5.30;99.90
23156;DHT22;11746;50.876;4.246;2024-02-23T02:53:00;5.30;99.90
23156;DHT22;11746;50.876;4.246;2024-02-23T02:55:28;5.40;99.90
23156;DHT22;11746;50.876;4.246;2024-02-23T02:57:56;5.40;99.90
23156;DHT22;11746;50.876;4.246;2024-02-23T03:00:22;5.40;99.90
23156;DHT22;11746;50.876;4.246;2024-02-23T03:02:50;5.50;99.90
23156;DHT22;11746;50.876;4.246;2024-02-23T03:05:18;5.50;99.90
23156;DHT22;11746;50.876;4.246;2024-02-23T03:07:46;5.50;99.90
23156;DHT22;11746;50.876;4.246;2024-02-23T03:10:14;5.50;99.90
23156;DHT22;11746;50.876;4.246;2024-02-23T03:12:40;5.60;99.90
23156;DHT22;11746;50.876;4.246;2024-02-23T03:15:05;5.60;99.90
23156;DHT22;11746;50.876;4.246;2024-02-23T03:17:34;5.60;99.90
23156;DHT22;11746;50.876;4.246;2024-02-23T03:19:59;5.60;99.90
23156;DHT22;11746;50.876;4.246;2024-02-23T03:22:25;5.60;99.90
23156;DHT22;11746;50.876;4.246;2024-02-23T03:24:51;5.60;99.90
23156;DHT22;11746;50.876;4.246;2024-02-23T03:27:16;5.60;99.90
23156;DHT22;11746;50.876;4.246;2024-02-23T03:29:47;5.50;99.90
23156;DHT22;11746;50.876;4.246;2024-02-23T03:32:12;5.60;99.90
23156;DHT22;11746;50.876;4.246;2024-02-23T03:34:43;5.50;99.90
23156;DHT22;11746;50.876;4.246;2024-02-23T03:37:11;5.60;99.90
23156;DHT22;11746;50.876;4.246;2024-02-23T03:39:37;5.60;99.90
23156;DHT22;11746;50.876;4.246;2024-02-23T03:42:04;5.70;99.90
23156;DHT22;11746;50.876;4.246;2024-02-23T03:44:32;5.70;99.90
23156;DHT22;11746;50.876;4.246;2024-02-23T03:46:58;5.70;99.90
23156;DHT22;11746;50.876;4.246;2024-02-23T03:49:27;5.80;99.90
23156;DHT22;11746;50.876;4.246;2024-02-23T03:51:52;5.70;99.90
23156;DHT22;11746;50.876;4.246;2024-02-23T03:54:20;5.80;99.90
23156;DHT22;11746;50.876;4.246;2024-02-23T03:56:46;5.80;99.90
23156;DHT22;11746;50.876;4.246;2024-02-23T03:59:11;5.80;99.90
23156;DHT22;11746;50.876;4.246;2024-02-23T04:01:39;5.70;99.90
23156;DHT22;11746;50.876;4.246;2024-02-23T04:04:07;5.70;99.90
23156;DHT22;11746;50.876;4.246;2024-02-23T04:06:36;5.70;99.90
23156;DHT22;11746;50.876;4.246;2024-02-23T04:09:04;5.80;99.90
23156;DHT22;11746;50.876;4.246;2024-02-23T04:11:31;5.70;99.90
23156;DHT22;11746;50.876;4.246;2024-02-23T04:13:56;5.80;99.90
23156;DHT22;11746;50.876;4.246;2024-02-23T04:16:23;5.70;99.90
23156;DHT22;11746;50.876;4.246;2024-02-23T04:18:50;5.70;99.90
23156;DHT22;11746;50.876;4.246;2024-02-23T04:21:16;5.60;99.90
23156;DHT22;11746;50.876;4.246;2024-02-23T04:23:43;5.60;99.90
23156;DHT22;11746;50.876;4.246;2024-02-23T04:26:11;5.60;99.90
23156;DHT22;11746;50.876;4.246;2024-02-23T04:28:44;5.60;99.90
23156;DHT22;11746;50.876;4.246;2024-02-23T04:31:10;5.60;99.90
23156;DHT22;11746;50.876;4.246;2024-02-23T04:33:39;5.60;99.90
23156;DHT22;11746;50.876;4.246;2024-02-23T04:36:05;5.60;99.90
23156;DHT22;11746;50.876;4.246;2024-02-23T04:38:32;5.60;99.90
23156;DHT22;11746;50.876;4.246;2024-02-23T04:41:03;5.50;99.90
23156;DHT22;11746;50.876;4.246;2024-02-23T04:43:29;5.50;99.90
23156;DHT22;11746;50.876;4.246;2024-02-23T04:45:55;5.60;99.90
23156;DHT22;11746;50.876;4.246;2024-02-23T04:48:23;5.60;99.90
23156;DHT22;11746;50.876;4.246;2024-02-23T04:50:51;5.70;99.90
23156;DHT22;11746;50.876;4.246;2024-02-23T04:53:17;5.70;99.90
23156;DHT22;11746;50.876;4.246;2024-02-23T04:55:42;5.70;99.90
23156;DHT22;11746;50.876;4.246;2024-02-23T04:58:10;5.80;99.90
23156;DHT22;11746;50.876;4.246;2024-02-23T05:00:37;5.80;99.90
23156;DHT22;11746;50.876;4.246;2024-02-23T05:03:03;5.80;99.90
23156;DHT22;11746;50.876;4.246;2024-02-23T05:05:30;5.80;99.90
23156;DHT22;11746;50.876;4.246;2024-02-23T05:07:58;5.80;99.90
23156;DHT22;11746;50.876;4.246;2024-02-23T05:10:24;5.90;99.90
23156;DHT22;11746;50.876;4.246;2024-02-23T05:12:50;5.80;99.90
23156;DHT22;11746;50.876;4.246;2024-02-23T05:15:16;5.90;99.90
23156;DHT22;11746;50.876;4.246;2024-02-23T05:17:42;5.90;99.90
23156;DHT22;11746;50.876;4.246;2024-02-23T05:20:08;5.80;99.90
23156;DHT22;11746;50.876;4.246;2024-02-23T05:22:38;5.90;99.90
23156;DHT22;11746;50.876;4.246;2024-02-23T05:25:09;5.90;99.90
23156;DHT22;11746;50.876;4.246;2024-02-23T05:27:35;5.90;99.90
23156;DHT22;11746;50.876;4.246;2024-02-23T05:30:03;6.00;99.90
23156;DHT22;11746;50.876;4.246;2024-02-23T05:32:32;6.00;99.90
23156;DHT22;11746;50.876;4.246;2024-02-23T05:34:57;5.90;99.90
23156;DHT22;11746;50.876;4.246;2024-02-23T05:37:25;5.90;99.90
23156;DHT22;11746;50.876;4.246;2024-02-23T05:39:52;5.90;99.90
23156;DHT22;11746;50.876;4.246;2024-02-23T05:42:21;5.90;99.90
23156;DHT22;11746;50.876;4.246;2024-02-23T05:44:47;5.90;99.90
23156;DHT22;11746;50.876;4.246;2024-02-23T05:47:16;5.90;99.90
23156;DHT22;11746;50.876;4.246;2024-02-23T05:49:42;5.90;99.90
23156;DHT22;11746;50.876;4.246;2024-02-23T05:52:07;5.90;99.90
23156;DHT22;11746;50.876;4.246;2024-02-23T05:54:33;5.90;99.90
23156;DHT22;11746;50.876;4.246;2024-02-23T05:57:01;5.90;99.90
23156;DHT22;11746;50.876;4.246;2024-02-23T05:59:28;5.90;99.90
23156;DHT22;11746;50.876;4.246;2024-02-23T06:01:53;5.90;99.90
23156;DHT22;11746;50.876;4.246;2024-02-23T06:04:25;5.90;99.90
23156;DHT22;11746;50.876;4.246;2024-02-23T06:06:50;6.00;99.90
23156;DHT22;11746;50.876;4.246;2024-02-23T06:09:19;5.90;99.90
23156;DHT22;11746;50.876;4.246;2024-02-23T06:11:47;6.00;99.90
23156;DHT22;11746;50.876;4.246;2024-02-23T06:14:15;6.00;99.90
23156;DHT22;11746;50.876;4.246;2024-02-23T06:16:40;5.90;99.90
23156;DHT22;11746;50.876;4.246;2024-02-23T06:19:06;6.00;99.90
23156;DHT22;11746;50.876;4.246;2024-02-23T06:21:32;5.90;99.90
23156;DHT22;11746;50.876;4.246;2024-02-23T06:24:00;6.00;99.90
23156;DHT22;11746;50.876;4.246;2024-02-23T06:26:25;6.00;99.90
23156;DHT22;11746;50.876;4.246;2024-02-23T06:28:53;6.00;99.90
23156;DHT22;11746;50.876;4.246;2024-02-23T06:31:19;6.00;99.90
23156;DHT22;11746;50.876;4.246;2024-02-23T06:33:49;6.10;99.90
23156;DHT22;11746;50.876;4.246;2024-02-23T06:36:19;6.00;99.90
23156;DHT22;11746;50.876;4.246;2024-02-23T06:38:47;5.90;99.90
23156;DHT22;11746;50.876;4.246;2024-02-23T06:41:13;5.90;99.90
23156;DHT22;11746;50.876;4.246;2024-02-23T06:43:41;5.90;99.90
23156;DHT22;11746;50.876;4.246;2024-02-23T06:46:07;5.90;99.90
23156;DHT22;11746;50.876;4.246;2024-02-23T06:48:36;5.90;99.90
23156;DHT22;11746;50.876;4.246;2024-02-23T06:51:05;5.90;99.90
23156;DHT22;11746;50.876;4.246;2024-02-23T06:53:31;6.00;99.90
23156;DHT22;11746;50.876;4.246;2024-02-23T06:55:56;6.00;99.90
23156;DHT22;11746;50.876;4.246;2024-02-23T06:58:26;6.10;99.90
23156;DHT22;11746;50.876;4.246;2024-02-23T07:00:52;6.20;99.90
23156;DHT22;11746;50.876;4.246;2024-02-23T07:03:22;6.20;99.90
23156;DHT22;11746;50.876;4.246;2024-02-23T07:05:48;6.10;99.90
23156;DHT22;11746;50.876;4.246;2024-02-23T07:08:17;6.20;99.90
23156;DHT22;11746;50.876;4.246;2024-02-23T07:10:45;6.20;99.90
23156;DHT22;11746;50.876;4.246;2024-02-23T07:13:15;6.20;99.90
23156;DHT22;11746;50.876;4.246;2024-02-23T07:15:42;6.30;99.90
23156;DHT22;11746;50.876;4.246;2024-02-23T07:18:08;6.30;99.90
23156;DHT22;11746;50.876;4.246;2024-02-23T07:20:37;6.30;99.90
23156;DHT22;11746;50.876;4.246;2024-02-23T07:23:04;6.30;99.90
23156;DHT22;11746;50.876;4.246;2024-02-23T07:25:32;6.30;99.90
23156;DHT22;11746;50.876;4.246;2024-02-23T07:28:00;6.40;99.90
23156;DHT22;11746;50.876;4.246;2024-02-23T07:30:28;6.40;99.90
23156;DHT22;11746;50.876;4.246;2024-02-23T07:32:53;6.40;99.90
23156;DHT22;11746;50.876;4.246;2024-02-23T07:35:19;6.40;99.90
23156;DHT22;11746;50.876;4.246;2024-02-23T07:37:44;6.40;99.90
23156;DHT22;11746;50.876;4.246;2024-02-23T07:40:10;6.40;99.90
23156;DHT22;11746;50.876;4.246;2024-02-23T07:42:38;6.30;99.90
23156;DHT22;11746;50.876;4.246;2024-02-23T07:45:05;6.40;99.90
23156;DHT22;11746;50.876;4.246;2024-02-23T07:47:32;6.30;99.90
23156;DHT22;11746;50.876;4.246;2024-02-23T07:50:00;6.40;99.90
23156;DHT22;11746;50.876;4.246;2024-02-23T07:52:26;6.40;99.90
23156;DHT22;11746;50.876;4.246;2024-02-23T07:54:54;6.50;99.90
23156;DHT22;11746;50.876;4.246;2024-02-23T07:57:23;6.40;99.90
23156;DHT22;11746;50.876;4.246;2024-02-23T07:59:49;6.50;99.90
23156;DHT22;11746;50.876;4.246;2024-02-23T08:02:17;6.50;99.90
23156;DHT22;11746;50.876;4.246;2024-02-23T08:04:45;6.50;99.90
23156;DHT22;11746;50.876;4.246;2024-02-23T08:07:15;6.40;99.90
23156;DHT22;11746;50.876;4.246;2024-02-23T08:09:43;6.40;99.90
23156;DHT22;11746;50.876;4.246;2024-02-23T08:12:09;6.30;99.90
23156;DHT22;11746;50.876;4.246;2024-02-23T08:14:36;6.10;99.90
23156;DHT22;11746;50.876;4.246;2024-02-23T08:17:04;6.00;99.90
23156;DHT22;11746;50.876;4.246;2024-02-23T08:19:30;5.90;99.90
23156;DHT22;11746;50.876;4.246;2024-02-23T08:21:55;5.80;99.90
23156;DHT22;11746;50.876;4.246;2024-02-23T08:24:22;5.70;99.90
23156;DHT22;11746;50.876;4.246;2024-02-23T08:26:50;5.70;99.90
23156;DHT22;11746;50.876;4.246;2024-02-23T08:29:18;5.80;99.90
23156;DHT22;11746;50.876;4.246;2024-02-23T08:31:44;5.80;99.90
23156;DHT22;11746;50.876;4.246;2024-02-23T08:34:11;5.70;99.90
23156;DHT22;11746;50.876;4.246;2024-02-23T08:36:40;5.70;99.90
23156;DHT22;11746;50.876;4.246;2024-02-23T08:39:05;5.70;99.90
23156;DHT22;11746;50.876;4.246;2024-02-23T08:41:31;5.80;99.90
23156;DHT22;11746;50.876;4.246;2024-02-23T08:43:57;5.70;99.90
23156;DHT22;11746;50.876;4.246;2024-02-23T08:46:25;5.80;99.90
23156;DHT22;11746;50.876;4.246;2024-02-23T08:48:50;5.80;99.90
23156;DHT22;11746;50.876;4.246;2024-02-23T08:51:16;5.90;99.90
23156;DHT22;11746;50.876;4.246;2024-02-23T08:53:42;5.80;99.90
23156;DHT22;11746;50.876;4.246;2024-02-23T08:56:10;5.90;99.90
23156;DHT22;11746;50.876;4.246;2024-02-23T08:58:39;5.80;99.90
23156;DHT22;11746;50.876;4.246;2024-02-23T09:01:05;5.70;99.90
23156;DHT22;11746;50.876;4.246;2024-02-23T09:03:30;5.70;99.90
23156;DHT22;11746;50.876;4.246;2024-02-23T09:05:57;5.80;99.90
23156;DHT22;11746;50.876;4.246;2024-02-23T09:08:25;5.80;99.90
23156;DHT22;11746;50.876;4.246;2024-02-23T09:10:51;5.90;99.90
23156;DHT22;11746;50.876;4.246;2024-02-23T09:13:16;6.00;99.90
23156;DHT22;11746;50.876;4.246;2024-02-23T09:15:44;6.10;99.90
23156;DHT22;11746;50.876;4.246;2024-02-23T09:18:12;6.10;99.90
23156;DHT22;11746;50.876;4.246;2024-02-23T09:20:38;6.10;99.90
23156;DHT22;11746;50.876;4.246;2024-02-23T09:23:08;6.20;99.90
23156;DHT22;11746;50.876;4.246;2024-02-23T09:25:37;6.30;99.90
23156;DHT22;11746;50.876;4.246;2024-02-23T09:28:03;6.40;99.90
23156;DHT22;11746;50.876;4.246;2024-02-23T09:30:28;6.40;99.90
23156;DHT22;11746;50.876;4.246;2024-02-23T09:32:56;6.40;99.90
23156;DHT22;11746;50.876;4.246;2024-02-23T09:35:24;6.40;99.90
23156;DHT22;11746;50.876;4.246;2024-02-23T09:37:54;6.50;99.90
23156;DHT22;11746;50.876;4.246;2024-02-23T09:40:20;6.60;99.90
23156;DHT22;11746;50.876;4.246;2024-02-23T09:42:54;6.70;99.90
23156;DHT22;11746;50.876;4.246;2024-02-23T09:45:21;6.60;99.90
23156;DHT22;11746;50.876;4.246;2024-02-23T09:47:49;6.50;99.90
23156;DHT22;11746;50.876;4.246;2024-02-23T09:50:18;6.50;99.90
23156;DHT22;11746;50.876;4.246;2024-02-23T09:52:47;6.70;99.90
23156;DHT22;11746;50.876;4.246;2024-02-23T09:55:13;6.70;99.90
23156;DHT22;11746;50.876;4.246;2024-02-23T09:57:44;6.80;99.90
23156;DHT22;11746;50.876;4.246;2024-02-23T10:00:12;6.90;99.90
23156;DHT22;11746;50.876;4.246;2024-02-23T10:02:39;7.00;99.90
23156;DHT22;11746;50.876;4.246;2024-02-23T10:05:06;7.20;99.90
23156;DHT22;11746;50.876;4.246;2024-02-23T10:07:35;7.10;99.90
23156;DHT22;11746;50.876;4.246;2024-02-23T10:10:01;7.10;99.90
23156;DHT22;11746;50.876;4.246;2024-02-23T10:12:27;7.20;99.90
23156;DHT22;11746;50.876;4.246;2024-02-23T10:14:53;7.00;99.90
23156;DHT22;11746;50.876;4.246;2024-02-23T10:17:21;6.90;99.90
23156;DHT22;11746;50.876;4.246;2024-02-23T10:19:51;6.90;99.90
23156;DHT22;11746;50.876;4.246;2024-02-23T10:22:17;6.90;99.90
23156;DHT22;11746;50.876;4.246;2024-02-23T10:24:42;6.90;99.90
23156;DHT22;11746;50.876;4.246;2024-02-23T10:27:11;7.00;99.90
23156;DHT22;11746;50.876;4.246;2024-02-23T10:29:39;7.20;99.90
23156;DHT22;11746;50.876;4.246;2024-02-23T10:32:06;7.20;99.90
23156;DHT22;11746;50.876;4.246;2024-02-23T10:34:33;7.10;99.90
23156;DHT22;11746;50.876;4.246;2024-02-23T10:37:06;7.30;99.90
23156;DHT22;11746;50.876;4.246;2024-02-23T10:39:33;7.30;99.90
23156;DHT22;11746;50.876;4.246;2024-02-23T10:42:04;7.40;99.90
23156;DHT22;11746;50.876;4.246;2024-02-23T10:44:31;7.30;99.90
23156;DHT22;11746;50.876;4.246;2024-02-23T10:46:58;7.50;99.90
23156;DHT22;11746;50.876;4.246;2024-02-23T10:49:28;7.50;99.90
23156;DHT22;11746;50.876;4.246;2024-02-23T10:51:55;7.50;99.90
23156;DHT22;11746;50.876;4.246;2024-02-23T10:54:24;7.60;99.90
23156;DHT22;11746;50.876;4.246;2024-02-23T10:56:53;7.70;99.90
23156;DHT22;11746;50.876;4.246;2024-02-23T10:59:21;7.80;99.90
23156;DHT22;11746;50.876;4.246;2024-02-23T11:01:49;7.80;99.90
23156;DHT22;11746;50.876;4.246;2024-02-23T11:04:16;7.80;99.90
23156;DHT22;11746;50.876;4.246;2024-02-23T11:06:42;7.70;99.90
23156;DHT22;11746;50.876;4.246;2024-02-23T11:09:12;7.70;99.90
23156;DHT22;11746;50.876;4.246;2024-02-23T11:11:38;7.60;99.90
23156;DHT22;11746;50.876;4.246;2024-02-23T11:14:07;7.60;99.90
23156;DHT22;11746;50.876;4.246;2024-02-23T11:16:41;7.70;99.90
23156;DHT22;11746;50.876;4.246;2024-02-23T11:19:08;7.70;99.90
23156;DHT22;11746;50.876;4.246;2024-02-23T11:21:52;7.80;99.90
23156;DHT22;11746;50.876;4.246;2024-02-23T11:24:18;7.70;99.90
23156;DHT22;11746;50.876;4.246;2024-02-23T11:26:43;7.70;99.90
23156;DHT22;11746;50.876;4.246;2024-02-23T11:29:14;7.80;99.90
23156;DHT22;11746;50.876;4.246;2024-02-23T11:31:46;7.80;99.90
23156;DHT22;11746;50.876;4.246;2024-02-23T11:34:12;7.70;99.90
23156;DHT22;11746;50.876;4.246;2024-02-23T11:36:41;7.70;99.90
23156;DHT22;11746;50.876;4.246;2024-02-23T11:39:10;7.70;99.90
23156;DHT22;11746;50.876;4.246;2024-02-23T11:41:38;7.60;99.90
23156;DHT22;11746;50.876;4.246;2024-02-23T11:44:04;7.60;99.90
23156;DHT22;11746;50.876;4.246;2024-02-23T11:46:32;7.60;99.90
23156;DHT22;11746;50.876;4.246;2024-02-23T11:48:58;7.70;99.90
23156;DHT22;11746;50.876;4.246;2024-02-23T11:51:25;7.70;99.90
23156;DHT22;11746;50.876;4.246;2024-02-23T11:53:55;7.70;99.90
23156;DHT22;11746;50.876;4.246;2024-02-23T11:56:23;7.70;99.90
23156;DHT22;11746;50.876;4.246;2024-02-23T11:58:52;7.70;99.90
23156;DHT22;11746;50.876;4.246;2024-02-23T12:01:18;7.70;99.90
23156;DHT22;11746;50.876;4.246;2024-02-23T12:03:44;7.80;99.90
23156;DHT22;11746;50.876;4.246;2024-02-23T12:06:11;8.00;99.90
23156;DHT22;11746;50.876;4.246;2024-02-23T12:08:37;8.10;99.90
23156;DHT22;11746;50.876;4.246;2024-02-23T12:11:05;8.10;99.90
23156;DHT22;11746;50.876;4.246;2024-02-23T12:13:36;8.00;99.90
23156;DHT22;11746;50.876;4.246;2024-02-23T12:16:02;8.10;99.90
23156;DHT22;11746;50.876;4.246;2024-02-23T12:18:33;8.10;99.90
23156;DHT22;11746;50.876;4.246;2024-02-23T12:21:05;8.10;99.90
23156;DHT22;11746;50.876;4.246;2024-02-23T12:23:44;8.20;99.90
23156;DHT22;11746;50.876;4.246;2024-02-23T12:26:17;8.20;99.90
23156;DHT22;11746;50.876;4.246;2024-02-23T12:28:43;8.20;99.90
23156;DHT22;11746;50.876;4.246;2024-02-23T12:31:09;8.40;99.90
23156;DHT22;11746;50.876;4.246;2024-02-23T12:33:36;8.50;99.90
23156;DHT22;11746;50.876;4.246;2024-02-23T12:36:15;8.60;99.90
23156;DHT22;11746;50.876;4.246;2024-02-23T12:38:41;8.50;99.90
23156;DHT22;11746;50.876;4.246;2024-02-23T12:41:06;8.40;99.90
23156;DHT22;11746;50.876;4.246;2024-02-23T12:43:35;8.50;99.90
23156;DHT22;11746;50.876;4.246;2024-02-23T12:46:01;8.50;99.90
23156;DHT22;11746;50.876;4.246;2024-02-23T12:48:28;8.50;99.90
23156;DHT22;11746;50.876;4.246;2024-02-23T12:50:54;8.50;99.90
23156;DHT22;11746;50.876;4.246;2024-02-23T12:53:39;8.50;99.90
23156;DHT22;11746;50.876;4.246;2024-02-23T12:56:06;8.50;99.90
23156;DHT22;11746;50.876;4.246;2024-02-23T12:58:42;8.40;99.90
23156;DHT22;11746;50.876;4.246;2024-02-23T13:01:11;8.40;99.90
23156;DHT22;11746;50.876;4.246;2024-02-23T13:03:38;8.40;99.90
23156;DHT22;11746;50.876;4.246;2024-02-23T13:06:06;8.40;99.90
23156;DHT22;11746;50.876;4.246;2024-02-23T13:08:32;8.30;99.90
23156;DHT22;11746;50.876;4.246;2024-02-23T13:11:01;8.30;99.90
23156;DHT22;11746;50.876;4.246;2024-02-23T13:13:27;8.40;99.90
23156;DHT22;11746;50.876;4.246;2024-02-23T13:15:54;8.40;99.90
23156;DHT22;11746;50.876;4.246;2024-02-23T13:18:22;8.50;99.90
23156;DHT22;11746;50.876;4.246;2024-02-23T13:20:48;8.50;99.90
23156;DHT22;11746;50.876;4.246;2024-02-23T13:23:13;8.50;99.90
23156;DHT22;11746;50.876;4.246;2024-02-23T13:25:41;8.50;99.90
23156;DHT22;11746;50.876;4.246;2024-02-23T13:28:07;8.60;99.90
23156;DHT22;11746;50.876;4.246;2024-02-23T13:30:34;8.60;99.90
23156;DHT22;11746;50.876;4.246;2024-02-23T13:33:03;8.60;99.90
23156;DHT22;11746;50.876;4.246;2024-02-23T13:35:31;8.50;99.90
23156;DHT22;11746;50.876;4.246;2024-02-23T13:37:59;8.40;99.90
23156;DHT22;11746;50.876;4.246;2024-02-23T13:40:27;8.40;99.90
23156;DHT22;11746;50.876;4.246;2024-02-23T13:42:55;8.50;99.90
23156;DHT22;11746;50.876;4.246;2024-02-23T13:45:23;8.70;99.90
23156;DHT22;11746;50.876;4.246;2024-02-23T13:48:00;8.80;99.90
23156;DHT22;11746;50.876;4.246;2024-02-23T13:50:26;9.20;99.90
23156;DHT22;11746;50.876;4.246;2024-02-23T13:52:53;9.40;99.90
23156;DHT22;11746;50.876;4.246;2024-02-23T13:55:21;9.50;99.90
23156;DHT22;11746;50.876;4.246;2024-02-23T13:57:48;9.50;99.90
23156;DHT22;11746;50.876;4.246;2024-02-23T14:00:15;9.50;99.90
23156;DHT22;11746;50.876;4.246;2024-02-23T14:02:41;9.30;99.90
23156;DHT22;11746;50.876;4.246;2024-02-23T14:05:07;9.30;99.90
23156;DHT22;11746;50.876;4.246;2024-02-23T14:07:36;9.10;99.90
23156;DHT22;11746;50.876;4.246;2024-02-23T14:10:04;9.00;99.90
23156;DHT22;11746;50.876;4.246;2024-02-23T14:12:30;9.20;99.90
23156;DHT22;11746;50.876;4.246;2024-02-23T14:14:55;9.30;99.90
23156;DHT22;11746;50.876;4.246;2024-02-23T14:17:23;9.30;99.90
23156;DHT22;11746;50.876;4.246;2024-02-23T14:19:49;9.50;99.90
23156;DHT22;11746;50.876;4.246;2024-02-23T14:22:16;10.10;99.90
23156;DHT22;11746;50.876;4.246;2024-02-23T14:24:44;10.60;99.90
23156;DHT22;11746;50.876;4.246;2024-02-23T14:27:10;10.30;99.90
23156;DHT22;11746;50.876;4.246;2024-02-23T14:29:36;10.20;99.90
23156;DHT22;11746;50.876;4.246;2024-02-23T14:32:06;10.30;99.90
23156;DHT22;11746;50.876;4.246;2024-02-23T14:34:31;11.20;99.90
23156;DHT22;11746;50.876;4.246;2024-02-23T14:36:59;11.60;99.90
23156;DHT22;11746;50.876;4.246;2024-02-23T14:39:25;11.70;99.90
23156;DHT22;11746;50.876;4.246;2024-02-23T14:41:50;11.60;99.90
23156;DHT22;11746;50.876;4.246;2024-02-23T14:44:18;11.10;99.90
23156;DHT22;11746;50.876;4.246;2024-02-23T14:46:46;10.80;99.90
23156;DHT22;11746;50.876;4.246;2024-02-23T14:49:12;10.40;99.90
23156;DHT22;11746;50.876;4.246;2024-02-23T14:51:42;9.80;99.90
23156;DHT22;11746;50.876;4.246;2024-02-23T14:54:08;10.60;99.90
23156;DHT22;11746;50.876;4.246;2024-02-23T14:56:34;11.90;99.90
23156;DHT22;11746;50.876;4.246;2024-02-23T14:59:00;12.80;99.90
23156;DHT22;11746;50.876;4.246;2024-02-23T15:01:30;13.60;99.90
23156;DHT22;11746;50.876;4.246;2024-02-23T15:04:00;13.70;99.90
23156;DHT22;11746;50.876;4.246;2024-02-23T15:06:26;13.70;99.90
23156;DHT22;11746;50.876;4.246;2024-02-23T15:08:54;12.70;99.90
23156;DHT22;11746;50.876;4.246;2024-02-23T15:11:19;12.10;99.90
23156;DHT22;11746;50.876;4.246;2024-02-23T15:13:45;12.50;99.90
23156;DHT22;11746;50.876;4.246;2024-02-23T15:16:10;13.10;99.90
23156;DHT22;11746;50.876;4.246;2024-02-23T15:18:38;13.60;99.90
23156;DHT22;11746;50.876;4.246;2024-02-23T15:21:04;13.90;99.90
23156;DHT22;11746;50.876;4.246;2024-02-23T15:23:32;14.30;99.90
23156;DHT22;11746;50.876;4.246;2024-02-23T15:25:58;14.80;99.90
23156;DHT22;11746;50.876;4.246;2024-02-23T15:28:24;13.40;99.90
23156;DHT22;11746;50.876;4.246;2024-02-23T15:30:50;12.50;99.90
23156;DHT22;11746;50.876;4.246;2024-02-23T15:33:19;11.70;99.90
23156;DHT22;11746;50.876;4.246;2024-02-23T15:35:45;11.00;99.90
23156;DHT22;11746;50.876;4.246;2024-02-23T15:38:13;10.50;99.90
23156;DHT22;11746;50.876;4.246;2024-02-23T15:40:38;10.20;99.90
23156;DHT22;11746;50.876;4.246;2024-02-23T15:43:04;10.00;99.90
23156;DHT22;11746;50.876;4.246;2024-02-23T15:45:32;10.00;99.90